sensor_id;sensor_type;location;lat;lon;timestamp;pressure;altitude;pressure_sealevel;temperature;humidity
70434;BME280;57876;47.792;12.960;2023-01-29T00:02:23;97632.72;;;16.29;38.42
70434;BME280;57876;47.792;12.960;2023-01-29T00:04:48;97632.44;;;16.31;38.77
70434;BME280;57876;47.792;12.960;2023-01-29T00:07:12;97626.47;;;16.29;38.25
70434;BME280;57876;47.792;12.960;2023-01-29T00:09:37;97631.13;;;16.28;38.23
70434;BME280;57876;47.792;12.960;2023-01-29T00:12:01;97630.91;;;16.25;38.56
70434;BME280;57876;47.792;12.960;2023-01-29T00:14:26;97634.22;;;16.22;38.56
70434;BME280;57876;47.792;12.960;2023-01-29T00:16:50;97638.06;;;16.21;38.47
70434;BME280;57876;47.792;12.960;2023-01-29T00:19:15;97634.22;;;16.22;38.82
70434;BME280;57876;47.792;12.960;2023-01-29T00:21:40;97624.50;;;16.16;38.36
70434;BME280;57876;47.792;12.960;2023-01-29T00:24:05;97623.72;;;16.15;38.63
70434;BME280;57876;47.792;12.960;2023-01-29T00:26:29;97634.81;;;16.19;38.54
70434;BME280;57876;47.792;12.960;2023-01-29T00:28:54;97622.69;;;16.11;39.05
70434;BME280;57876;47.792;12.960;2023-01-29T00:31:22;97634.44;;;16.12;38.79
70434;BME280;57876;47.792;12.960;2023-01-29T00:33:48;97637.16;;;16.12;38.68
70434;BME280;57876;47.792;12.960;2023-01-29T00:36:14;97641.50;;;16.13;38.68
70434;BME280;57876;47.792;12.960;2023-01-29T00:38:38;97652.41;;;16.13;38.37
70434;BME280;57876;47.792;12.960;2023-01-29T00:41:10;97642.91;;;16.10;38.56
70434;BME280;57876;47.792;12.960;2023-01-29T00:43:53;97652.50;;;16.07;38.92
70434;BME280;57876;47.792;12.960;2023-01-29T00:46:36;97656.84;;;16.08;38.38
70434;BME280;57876;47.792;12.960;2023-01-29T00:49:01;97657.16;;;16.07;38.84
70434;BME280;57876;47.792;12.960;2023-01-29T00:51:25;97650.38;;;16.04;38.75
70434;BME280;57876;47.792;12.960;2023-01-29T00:53:49;97655.03;;;16.04;38.79
70434;BME280;57876;47.792;12.960;2023-01-29T00:56:14;97666.81;;;15.99;38.75
70434;BME280;57876;47.792;12.960;2023-01-29T00:58:38;97679.88;;;16.02;38.87
70434;BME280;57876;47.792;12.960;2023-01-29T01:01:03;97668.50;;;15.95;38.52
70434;BME280;57876;47.792;12.960;2023-01-29T01:03:28;97675.81;;;16.00;38.39
70434;BME280;57876;47.792;12.960;2023-01-29T01:06:07;97668.22;;;15.97;38.35
70434;BME280;57876;47.792;12.960;2023-01-29T01:08:31;97669.03;;;15.97;38.53
70434;BME280;57876;47.792;12.960;2023-01-29T01:11:14;97669.63;;;15.94;38.81
70434;BME280;57876;47.792;12.960;2023-01-29T01:13:39;97671.03;;;15.92;38.66
70434;BME280;57876;47.792;12.960;2023-01-29T01:16:14;97679.75;;;15.94;38.72
70434;BME280;57876;47.792;12.960;2023-01-29T01:18:42;97678.94;;;15.93;38.48
70434;BME280;57876;47.792;12.960;2023-01-29T01:21:06;97671.31;;;15.90;38.82
70434;BME280;57876;47.792;12.960;2023-01-29T01:23:31;97673.84;;;15.87;38.51
70434;BME280;57876;47.792;12.960;2023-01-29T01:25:55;97689.94;;;15.88;38.63
70434;BME280;57876;47.792;12.960;2023-01-29T01:28:20;97686.69;;;15.86;38.52
70434;BME280;57876;47.792;12.960;2023-01-29T01:30:44;97684.25;;;15.84;38.77
70434;BME280;57876;47.792;12.960;2023-01-29T01:33:08;97684.25;;;15.84;38.91
70434;BME280;57876;47.792;12.960;2023-01-29T01:35:33;97683.50;;;15.79;38.63
70434;BME280;57876;47.792;12.960;2023-01-29T01:37:57;97681.59;;;15.79;38.74
70434;BME280;57876;47.792;12.960;2023-01-29T01:40:23;97682.44;;;15.80;38.49
70434;BME280;57876;47.792;12.960;2023-01-29T01:42:56;97679.38;;;15.81;38.91
70434;BME280;57876;47.792;12.960;2023-01-29T01:45:28;97677.47;;;15.82;38.44
70434;BME280;57876;47.792;12.960;2023-01-29T01:47:57;97664.81;;;15.72;39.08
70434;BME280;57876;47.792;12.960;2023-01-29T01:50:29;97672.06;;;15.77;38.52
70434;BME280;57876;47.792;12.960;2023-01-29T01:52:57;97664.00;;;15.72;38.78
70434;BME280;57876;47.792;12.960;2023-01-29T01:55:28;97679.97;;;15.78;38.90
70434;BME280;57876;47.792;12.960;2023-01-29T01:57:57;97674.91;;;15.72;38.84
70434;BME280;57876;47.792;12.960;2023-01-29T02:00:26;97673.47;;;15.74;38.69
70434;BME280;57876;47.792;12.960;2023-01-29T02:02:51;97671.66;;;15.70;38.97
70434;BME280;57876;47.792;12.960;2023-01-29T02:05:35;97676.81;;;15.71;38.58
70434;BME280;57876;47.792;12.960;2023-01-29T02:08:26;97672.47;;;15.70;38.56
70434;BME280;57876;47.792;12.960;2023-01-29T02:11:12;97676.00;;;15.71;38.82
70434;BME280;57876;47.792;12.960;2023-01-29T02:13:36;97673.28;;;15.71;38.75
70434;BME280;57876;47.792;12.960;2023-01-29T02:16:00;97671.41;;;15.66;38.76
70434;BME280;57876;47.792;12.960;2023-01-29T02:18:25;97669.19;;;15.68;38.79
70434;BME280;57876;47.792;12.960;2023-01-29T02:26:49;97683.94;;;15.67;38.88
70434;BME280;57876;47.792;12.960;2023-01-29T02:32:12;97672.50;;;15.65;38.70
70434;BME280;57876;47.792;12.960;2023-01-29T02:37:47;97661.97;;;15.58;38.79
70434;BME280;57876;47.792;12.960;2023-01-29T02:40:34;97667.88;;;15.66;38.92
70434;BME280;57876;47.792;12.960;2023-01-29T02:48:03;97661.41;;;15.61;38.45
70434;BME280;57876;47.792;12.960;2023-01-29T02:50:37;97668.38;;;15.68;38.93
70434;BME280;57876;47.792;12.960;2023-01-29T02:53:18;97681.47;;;15.71;39.13
70434;BME280;57876;47.792;12.960;2023-01-29T02:55:56;97680.84;;;15.74;38.58
70434;BME280;57876;47.792;12.960;2023-01-29T02:58:41;97684.91;;;15.76;39.08
70434;BME280;57876;47.792;12.960;2023-01-29T03:01:20;97682.50;;;15.75;38.68
70434;BME280;57876;47.792;12.960;2023-01-29T03:03:52;97690.09;;;15.78;38.68
70434;BME280;57876;47.792;12.960;2023-01-29T03:06:22;97691.50;;;15.75;38.89
70434;BME280;57876;47.792;12.960;2023-01-29T03:08:56;97680.56;;;15.75;39.04
70434;BME280;57876;47.792;12.960;2023-01-29T03:11:22;97697.16;;;15.79;38.84
70434;BME280;57876;47.792;12.960;2023-01-29T03:13:51;97680.56;;;15.75;38.92
70434;BME280;57876;47.792;12.960;2023-01-29T03:18:54;97677.53;;;15.77;39.05
70434;BME280;57876;47.792;12.960;2023-01-29T03:21:24;97676.97;;;15.80;38.57
70434;BME280;57876;47.792;12.960;2023-01-29T03:24:11;97681.38;;;15.76;38.95
70434;BME280;57876;47.792;12.960;2023-01-29T03:26:57;97688.38;;;15.82;38.73
70434;BME280;57876;47.792;12.960;2023-01-29T03:29:43;97686.75;;;15.81;38.71
70434;BME280;57876;47.792;12.960;2023-01-29T03:32:29;97690.28;;;15.81;38.84
70434;BME280;57876;47.792;12.960;2023-01-29T03:34:57;97695.47;;;15.83;38.56
70434;BME280;57876;47.792;12.960;2023-01-29T03:39:58;97691.34;;;15.85;38.85
70434;BME280;57876;47.792;12.960;2023-01-29T03:42:43;97673.19;;;15.76;38.88
70434;BME280;57876;47.792;12.960;2023-01-29T03:48:02;97683.97;;;15.86;38.76
70434;BME280;57876;47.792;12.960;2023-01-29T03:50:36;97675.56;;;15.82;38.61
70434;BME280;57876;47.792;12.960;2023-01-29T03:53:39;97678.19;;;15.88;38.98
70434;BME280;57876;47.792;12.960;2023-01-29T03:58:57;97669.28;;;15.82;38.81
70434;BME280;57876;47.792;12.960;2023-01-29T04:01:31;97663.81;;;15.82;38.66
70434;BME280;57876;47.792;12.960;2023-01-29T04:04:10;97651.81;;;15.83;38.86
70434;BME280;57876;47.792;12.960;2023-01-29T04:06:40;97657.78;;;15.85;38.83
70434;BME280;57876;47.792;12.960;2023-01-29T04:09:12;97652.34;;;15.85;39.00
70434;BME280;57876;47.792;12.960;2023-01-29T04:11:42;97632.41;;;15.84;38.95
70434;BME280;57876;47.792;12.960;2023-01-29T04:14:08;97636.19;;;15.89;38.90
70434;BME280;57876;47.792;12.960;2023-01-29T04:16:39;97638.09;;;15.88;38.80
70434;BME280;57876;47.792;12.960;2023-01-29T04:19:05;97634.53;;;15.88;38.96
70434;BME280;57876;47.792;12.960;2023-01-29T04:21:29;97632.41;;;15.84;38.83
70434;BME280;57876;47.792;12.960;2023-01-29T04:23:55;97615.84;;;15.81;38.64
70434;BME280;57876;47.792;12.960;2023-01-29T04:29:24;97625.25;;;15.89;39.12
70434;BME280;57876;47.792;12.960;2023-01-29T04:32:09;97627.47;;;15.87;38.81
70434;BME280;57876;47.792;12.960;2023-01-29T04:37:22;97615.84;;;15.81;38.94
70434;BME280;57876;47.792;12.960;2023-01-29T04:45:09;97620.59;;;15.89;38.86
70434;BME280;57876;47.792;12.960;2023-01-29T04:47:59;97622.22;;;15.90;39.18
70434;BME280;57876;47.792;12.960;2023-01-29T04:50:34;97619.00;;;15.88;39.21
70434;BME280;57876;47.792;12.960;2023-01-29T04:53:06;97622.53;;;15.89;38.74
70434;BME280;57876;47.792;12.960;2023-01-29T04:55:44;97636.19;;;15.89;39.13
70434;BME280;57876;47.792;12.960;2023-01-29T04:58:20;97632.13;;;15.86;38.67
70434;BME280;57876;47.792;12.960;2023-01-29T05:00:52;97625.88;;;15.85;38.91
70434;BME280;57876;47.792;12.960;2023-01-29T05:03:17;97625.88;;;15.85;39.20
70434;BME280;57876;47.792;12.960;2023-01-29T05:05:45;97636.38;;;15.92;38.81
70434;BME280;57876;47.792;12.960;2023-01-29T05:08:13;97619.22;;;15.92;38.92
70434;BME280;57876;47.792;12.960;2023-01-29T05:10:39;97631.97;;;15.96;39.00
70434;BME280;57876;47.792;12.960;2023-01-29T05:13:08;97631.72;;;15.93;38.65
70434;BME280;57876;47.792;12.960;2023-01-29T05:16:01;97637.63;;;16.00;38.95
70434;BME280;57876;47.792;12.960;2023-01-29T05:18:28;97633.56;;;15.97;38.81
70434;BME280;57876;47.792;12.960;2023-01-29T05:20:55;97632.97;;;16.00;38.96
70434;BME280;57876;47.792;12.960;2023-01-29T05:23:22;97633.03;;;15.95;39.33
70434;BME280;57876;47.792;12.960;2023-01-29T05:25:47;97642.78;;;16.01;38.66
70434;BME280;57876;47.792;12.960;2023-01-29T05:28:13;97643.06;;;16.00;39.01
70434;BME280;57876;47.792;12.960;2023-01-29T05:30:45;97636.81;;;15.99;38.94
70434;BME280;57876;47.792;12.960;2023-01-29T05:35:42;97631.16;;;15.96;38.90
70434;BME280;57876;47.792;12.960;2023-01-29T05:38:07;97645.19;;;16.03;38.67
70434;BME280;57876;47.792;12.960;2023-01-29T05:40:31;97637.81;;;16.03;39.19
70434;BME280;57876;47.792;12.960;2023-01-29T05:42:56;97640.06;;;16.01;38.53
70434;BME280;57876;47.792;12.960;2023-01-29T05:45:21;97647.94;;;16.03;38.80
70434;BME280;57876;47.792;12.960;2023-01-29T05:47:45;97654.41;;;16.07;38.77
70434;BME280;57876;47.792;12.960;2023-01-29T05:50:11;97667.97;;;16.12;39.01
70434;BME280;57876;47.792;12.960;2023-01-29T05:52:35;97661.72;;;16.12;38.91
70434;BME280;57876;47.792;12.960;2023-01-29T05:55:00;97664.94;;;16.14;38.95
70434;BME280;57876;47.792;12.960;2023-01-29T05:57:24;97656.25;;;16.12;38.86
70434;BME280;57876;47.792;12.960;2023-01-29T05:59:49;97667.56;;;16.19;38.64
70434;BME280;57876;47.792;12.960;2023-01-29T06:02:13;97665.38;;;16.21;39.18
70434;BME280;57876;47.792;12.960;2023-01-29T06:04:37;97666.41;;;16.25;39.08
70434;BME280;57876;47.792;12.960;2023-01-29T06:07:02;97681.56;;;16.31;39.00
70434;BME280;57876;47.792;12.960;2023-01-29T06:09:28;97671.47;;;16.32;38.76
70434;BME280;57876;47.792;12.960;2023-01-29T06:11:52;97663.97;;;16.37;38.71
70434;BME280;57876;47.792;12.960;2023-01-29T06:14:16;97665.19;;;16.31;38.63
70434;BME280;57876;47.792;12.960;2023-01-29T06:16:41;97676.22;;;16.40;38.72
70434;BME280;57876;47.792;12.960;2023-01-29T06:19:05;97672.69;;;16.39;38.88
70434;BME280;57876;47.792;12.960;2023-01-29T06:21:30;97674.81;;;16.42;38.82
70434;BME280;57876;47.792;12.960;2023-01-29T06:23:54;97686.97;;;16.50;38.55
70434;BME280;57876;47.792;12.960;2023-01-29T06:26:18;97685.22;;;16.54;39.02
70434;BME280;57876;47.792;12.960;2023-01-29T06:28:43;97674.31;;;16.54;39.12
70434;BME280;57876;47.792;12.960;2023-01-29T06:31:09;97670.28;;;16.51;39.06
70434;BME280;57876;47.792;12.960;2023-01-29T06:33:34;97661.78;;;16.53;38.80
70434;BME280;57876;47.792;12.960;2023-01-29T06:36:00;97672.09;;;16.56;38.54
70434;BME280;57876;47.792;12.960;2023-01-29T06:38:25;97682.72;;;16.58;38.56
70434;BME280;57876;47.792;12.960;2023-01-29T06:40:50;97669.38;;;16.56;38.88
70434;BME280;57876;47.792;12.960;2023-01-29T06:43:14;97688.72;;;16.60;39.01
70434;BME280;57876;47.792;12.960;2023-01-29T06:45:54;97691.72;;;16.58;38.98
70434;BME280;57876;47.792;12.960;2023-01-29T06:48:20;97681.31;;;16.60;39.00
70434;BME280;57876;47.792;12.960;2023-01-29T06:50:44;97691.91;;;16.62;39.13
70434;BME280;57876;47.792;12.960;2023-01-29T06:53:09;97679.78;;;16.54;39.13
70434;BME280;57876;47.792;12.960;2023-01-29T06:55:33;97684.34;;;16.59;38.98
70434;BME280;57876;47.792;12.960;2023-01-29T06:57:58;97675.63;;;16.57;39.11
70434;BME280;57876;47.792;12.960;2023-01-29T07:00:22;97676.25;;;16.54;38.93
70434;BME280;57876;47.792;12.960;2023-01-29T07:02:50;97681.59;;;16.59;38.70
70434;BME280;57876;47.792;12.960;2023-01-29T07:05:14;97686.47;;;16.62;39.05
70434;BME280;57876;47.792;12.960;2023-01-29T07:07:41;97685.66;;;16.61;38.71
70434;BME280;57876;47.792;12.960;2023-01-29T07:10:07;97683.44;;;16.63;38.68
70434;BME280;57876;47.792;12.960;2023-01-29T07:12:31;97680.00;;;16.58;39.21
70434;BME280;57876;47.792;12.960;2023-01-29T07:14:56;97683.97;;;16.65;38.52
70434;BME280;57876;47.792;12.960;2023-01-29T07:17:20;97682.63;;;16.63;38.56
70434;BME280;57876;47.792;12.960;2023-01-29T07:19:45;97684.84;;;16.61;38.88
70434;BME280;57876;47.792;12.960;2023-01-29T07:22:09;97694.88;;;16.65;38.70
70434;BME280;57876;47.792;12.960;2023-01-29T07:24:33;97681.31;;;16.60;38.87
70434;BME280;57876;47.792;12.960;2023-01-29T07:26:58;97681.84;;;16.62;38.99
70434;BME280;57876;47.792;12.960;2023-01-29T07:29:22;97679.38;;;16.61;38.60
70434;BME280;57876;47.792;12.960;2023-01-29T07:31:47;97686.97;;;16.64;38.62
70434;BME280;57876;47.792;12.960;2023-01-29T07:34:11;97682.94;;;16.61;38.72
70434;BME280;57876;47.792;12.960;2023-01-29T07:36:36;97678.88;;;16.59;39.09
70434;BME280;57876;47.792;12.960;2023-01-29T07:39:00;97684.84;;;16.61;38.70
70434;BME280;57876;47.792;12.960;2023-01-29T07:41:24;97671.81;;;16.58;38.55
70434;BME280;57876;47.792;12.960;2023-01-29T07:43:49;97672.69;;;16.53;38.93
70434;BME280;57876;47.792;12.960;2023-01-29T07:46:13;97682.13;;;16.61;38.64
70434;BME280;57876;47.792;12.960;2023-01-29T07:48:40;97675.94;;;16.55;38.90
70434;BME280;57876;47.792;12.960;2023-01-29T07:51:05;97678.59;;;16.60;38.98
70434;BME280;57876;47.792;12.960;2023-01-29T07:53:29;97675.34;;;16.58;38.71
70434;BME280;57876;47.792;12.960;2023-01-29T07:55:54;97668.47;;;16.61;38.90
70434;BME280;57876;47.792;12.960;2023-01-29T07:58:19;97661.16;;;16.56;39.18
70434;BME280;57876;47.792;12.960;2023-01-29T08:00:44;97670.16;;;16.57;38.61
70434;BME280;57876;47.792;12.960;2023-01-29T08:03:15;97677.19;;;16.63;38.90
70434;BME280;57876;47.792;12.960;2023-01-29T08:05:43;97667.06;;;16.63;38.67
70434;BME280;57876;47.792;12.960;2023-01-29T08:08:08;97649.44;;;16.56;38.44
70434;BME280;57876;47.792;12.960;2023-01-29T08:10:34;97668.97;;;16.63;38.74
70434;BME280;57876;47.792;12.960;2023-01-29T08:13:00;97654.28;;;16.59;38.58
70434;BME280;57876;47.792;12.960;2023-01-29T08:15:25;97667.25;;;16.67;38.53
70434;BME280;57876;47.792;12.960;2023-01-29T08:17:51;97657.13;;;16.67;38.70
70434;BME280;57876;47.792;12.960;2023-01-29T08:20:18;97656.31;;;16.67;38.84
70434;BME280;57876;47.792;12.960;2023-01-29T08:22:43;97665.84;;;16.69;38.47
70434;BME280;57876;47.792;12.960;2023-01-29T08:25:08;97660.19;;;16.66;38.86
70434;BME280;57876;47.792;12.960;2023-01-29T08:27:33;97668.06;;;16.67;38.25
70434;BME280;57876;47.792;12.960;2023-01-29T08:29:57;97672.63;;;16.72;38.71
70434;BME280;57876;47.792;12.960;2023-01-29T08:32:21;97662.41;;;16.64;38.48
70434;BME280;57876;47.792;12.960;2023-01-29T08:34:46;97664.75;;;16.70;38.80
70434;BME280;57876;47.792;12.960;2023-01-29T08:37:10;97669.97;;;16.67;38.42
70434;BME280;57876;47.792;12.960;2023-01-29T08:39:35;97672.09;;;16.70;38.59
70434;BME280;57876;47.792;12.960;2023-01-29T08:41:59;97667.84;;;16.64;38.62
70434;BME280;57876;47.792;12.960;2023-01-29T08:44:23;97675.97;;;16.69;38.75
70434;BME280;57876;47.792;12.960;2023-01-29T08:46:48;97677.88;;;16.68;38.64
70434;BME280;57876;47.792;12.960;2023-01-29T08:49:12;97674.97;;;16.65;38.52
70434;BME280;57876;47.792;12.960;2023-01-29T08:51:37;97671.72;;;16.63;38.55
70434;BME280;57876;47.792;12.960;2023-01-29T08:54:01;97687.50;;;16.66;38.89
70434;BME280;57876;47.792;12.960;2023-01-29T08:56:25;97689.09;;;16.67;38.59
70434;BME280;57876;47.792;12.960;2023-01-29T08:58:50;97697.28;;;16.67;38.87
70434;BME280;57876;47.792;12.960;2023-01-29T09:01:14;97693.84;;;16.61;38.92
70434;BME280;57876;47.792;12.960;2023-01-29T09:03:39;97691.44;;;16.60;38.50
70434;BME280;57876;47.792;12.960;2023-01-29T09:06:08;97712.59;;;16.68;38.65
70434;BME280;57876;47.792;12.960;2023-01-29T09:08:33;97702.47;;;16.68;38.76
70434;BME280;57876;47.792;12.960;2023-01-29T09:10:58;97707.72;;;16.65;38.54
70434;BME280;57876;47.792;12.960;2023-01-29T09:13:23;97702.03;;;16.61;38.50
70434;BME280;57876;47.792;12.960;2023-01-29T09:15:47;97700.63;;;16.64;38.82
70434;BME280;57876;47.792;12.960;2023-01-29T09:18:12;97702.47;;;16.68;38.66
70434;BME280;57876;47.792;12.960;2023-01-29T09:20:36;97688.09;;;16.63;38.44
70434;BME280;57876;47.792;12.960;2023-01-29T09:23:08;97690.03;;;16.62;38.71
70434;BME280;57876;47.792;12.960;2023-01-29T09:25:33;97698.94;;;16.68;38.31
70434;BME280;57876;47.792;12.960;2023-01-29T09:28:02;97691.81;;;16.67;38.60
70434;BME280;57876;47.792;12.960;2023-01-29T09:30:27;97701.66;;;16.68;38.54
70434;BME280;57876;47.792;12.960;2023-01-29T09:33:12;97701.44;;;16.64;38.76
70434;BME280;57876;47.792;12.960;2023-01-29T09:35:51;97684.84;;;16.61;38.33
70434;BME280;57876;47.792;12.960;2023-01-29T09:48:15;97679.69;;;16.59;38.55
70434;BME280;57876;47.792;12.960;2023-01-29T09:50:50;97690.31;;;16.61;38.81
70434;BME280;57876;47.792;12.960;2023-01-29T09:53:24;97696.81;;;16.65;38.43
70434;BME280;57876;47.792;12.960;2023-01-29T09:56:13;97697.38;;;16.62;38.79
70434;BME280;57876;47.792;12.960;2023-01-29T09:58:42;97709.53;;;16.69;38.73
70434;BME280;57876;47.792;12.960;2023-01-29T10:01:32;97706.00;;;16.69;38.76
70434;BME280;57876;47.792;12.960;2023-01-29T10:06:47;97710.19;;;16.80;38.54
70434;BME280;57876;47.792;12.960;2023-01-29T10:12:14;97727.28;;;17.41;38.18
70434;BME280;57876;47.792;12.960;2023-01-29T10:25:34;97732.50;;;17.79;37.54
70434;BME280;57876;47.792;12.960;2023-01-29T10:28:02;97720.06;;;17.59;37.61
70434;BME280;57876;47.792;12.960;2023-01-29T10:30:33;97722.22;;;17.48;37.21
70434;BME280;57876;47.792;12.960;2023-01-29T10:33:04;97726.47;;;17.41;37.36
70434;BME280;57876;47.792;12.960;2023-01-29T10:35:33;97731.06;;;17.31;37.82
70434;BME280;57876;47.792;12.960;2023-01-29T10:38:17;97723.34;;;17.20;37.93
70434;BME280;57876;47.792;12.960;2023-01-29T10:51:44;97728.63;;;17.02;37.51
70434;BME280;57876;47.792;12.960;2023-01-29T11:00:18;97708.06;;;16.77;37.63
70434;BME280;57876;47.792;12.960;2023-01-29T11:02:47;97703.63;;;16.81;37.41
70434;BME280;57876;47.792;12.960;2023-01-29T11:05:24;97702.69;;;16.86;37.55
70434;BME280;57876;47.792;12.960;2023-01-29T11:08:07;97686.41;;;16.81;37.27
70434;BME280;57876;47.792;12.960;2023-01-29T11:10:41;97694.50;;;16.86;37.37
70434;BME280;57876;47.792;12.960;2023-01-29T11:13:11;97684.19;;;16.83;37.24
70434;BME280;57876;47.792;12.960;2023-01-29T11:15:44;97683.38;;;16.82;37.70
70434;BME280;57876;47.792;12.960;2023-01-29T11:18:11;97663.00;;;16.74;37.08
70434;BME280;57876;47.792;12.960;2023-01-29T11:20:43;97660.59;;;16.73;37.43
70434;BME280;57876;47.792;12.960;2023-01-29T11:23:24;97660.53;;;16.78;37.67
70434;BME280;57876;47.792;12.960;2023-01-29T11:25:54;97649.84;;;16.77;37.76
70434;BME280;57876;47.792;12.960;2023-01-29T11:28:48;97652.06;;;16.74;37.42
70434;BME280;57876;47.792;12.960;2023-01-29T11:31:22;97640.06;;;16.76;37.77
70434;BME280;57876;47.792;12.960;2023-01-29T11:33:51;97634.88;;;16.74;37.51
70434;BME280;57876;47.792;12.960;2023-01-29T11:36:36;97643.06;;;16.74;37.52
70434;BME280;57876;47.792;12.960;2023-01-29T11:39:11;97649.28;;;16.80;37.72
70434;BME280;57876;47.792;12.960;2023-01-29T11:42:03;97646.88;;;16.78;37.24
70434;BME280;57876;47.792;12.960;2023-01-29T11:44:41;97638.41;;;16.74;37.58
70434;BME280;57876;47.792;12.960;2023-01-29T11:49:44;97640.34;;;16.74;37.67
70434;BME280;57876;47.792;12.960;2023-01-29T11:52:10;97650.97;;;16.76;37.72
70434;BME280;57876;47.792;12.960;2023-01-29T11:54:46;97636.91;;;16.68;37.37
70434;BME280;57876;47.792;12.960;2023-01-29T11:57:42;97635.78;;;16.69;37.71
70434;BME280;57876;47.792;12.960;2023-01-29T12:02:44;97625.88;;;16.73;37.37
70434;BME280;57876;47.792;12.960;2023-01-29T12:05:16;97623.97;;;16.74;37.52
70434;BME280;57876;47.792;12.960;2023-01-29T12:07:46;97613.25;;;16.78;37.63
70434;BME280;57876;47.792;12.960;2023-01-29T12:10:36;97610.22;;;16.79;37.69
70434;BME280;57876;47.792;12.960;2023-01-29T12:15:45;97590.59;;;16.77;37.56
70434;BME280;57876;47.792;12.960;2023-01-29T12:20:53;97586.22;;;16.76;37.71
70434;BME280;57876;47.792;12.960;2023-01-29T12:23:58;97580.47;;;16.78;37.87
70434;BME280;57876;47.792;12.960;2023-01-29T12:26:31;97572.16;;;16.69;37.84
70434;BME280;57876;47.792;12.960;2023-01-29T12:32:10;97576.38;;;16.75;37.36
70434;BME280;57876;47.792;12.960;2023-01-29T12:34:50;97572.56;;;16.76;37.60
70434;BME280;57876;47.792;12.960;2023-01-29T12:38:01;97568.19;;;16.75;37.54
70434;BME280;57876;47.792;12.960;2023-01-29T12:40:39;97560.31;;;16.73;37.70
70434;BME280;57876;47.792;12.960;2023-01-29T12:43:15;97531.28;;;16.64;37.41
70434;BME280;57876;47.792;12.960;2023-01-29T12:45:40;97545.13;;;16.67;37.52
70434;BME280;57876;47.792;12.960;2023-01-29T12:48:08;97536.75;;;16.64;37.37
70434;BME280;57876;47.792;12.960;2023-01-29T12:50:36;97534.34;;;16.62;37.93
70434;BME280;57876;47.792;12.960;2023-01-29T12:55:51;97534.94;;;16.73;37.73
70434;BME280;57876;47.792;12.960;2023-01-29T12:58:31;97523.28;;;16.67;37.34
70434;BME280;57876;47.792;12.960;2023-01-29T13:01:03;97517.81;;;16.67;37.81
70434;BME280;57876;47.792;12.960;2023-01-29T13:03:48;97513.19;;;16.68;37.69
70434;BME280;57876;47.792;12.960;2023-01-29T13:06:17;97495.50;;;16.65;37.62
70434;BME280;57876;47.792;12.960;2023-01-29T13:08:44;97508.22;;;16.70;37.71
70434;BME280;57876;47.792;12.960;2023-01-29T13:11:19;97504.38;;;16.71;37.33
70434;BME280;57876;47.792;12.960;2023-01-29T13:13:51;97492.94;;;16.69;37.70
70434;BME280;57876;47.792;12.960;2023-01-29T13:16:19;97493.75;;;16.69;37.64
70434;BME280;57876;47.792;12.960;2023-01-29T13:18:53;97491.34;;;16.68;37.68
70434;BME280;57876;47.792;12.960;2023-01-29T13:21:24;97486.97;;;16.67;37.89
70434;BME280;57876;47.792;12.960;2023-01-29T13:23:52;97489.09;;;16.70;37.73
70434;BME280;57876;47.792;12.960;2023-01-29T13:26:20;97489.53;;;16.77;37.86
70434;BME280;57876;47.792;12.960;2023-01-29T13:28:48;97485.44;;;16.74;38.00
70434;BME280;57876;47.792;12.960;2023-01-29T13:31:33;97488.69;;;16.77;37.79
70434;BME280;57876;47.792;12.960;2023-01-29T13:36:27;97465.81;;;16.72;37.70
70434;BME280;57876;47.792;12.960;2023-01-29T13:38:59;97462.78;;;16.74;37.58
70434;BME280;57876;47.792;12.960;2023-01-29T13:41:40;97464.09;;;16.77;37.70
70434;BME280;57876;47.792;12.960;2023-01-29T13:44:17;97457.84;;;16.76;37.63
70434;BME280;57876;47.792;12.960;2023-01-29T13:46:49;97453.47;;;16.75;37.60
70434;BME280;57876;47.792;12.960;2023-01-29T14:02:43;97460.88;;;16.74;37.96
70434;BME280;57876;47.792;12.960;2023-01-29T14:10:36;97463.59;;;16.74;38.10
70434;BME280;57876;47.792;12.960;2023-01-29T14:15:36;97474.22;;;16.76;37.72
70434;BME280;57876;47.792;12.960;2023-01-29T14:20:36;97454.59;;;16.74;37.80
70434;BME280;57876;47.792;12.960;2023-01-29T14:23:03;97457.84;;;16.76;37.80
70434;BME280;57876;47.792;12.960;2023-01-29T14:25:34;97447.81;;;16.71;38.09
70434;BME280;57876;47.792;12.960;2023-01-29T14:28:01;97461.66;;;16.75;37.86
70434;BME280;57876;47.792;12.960;2023-01-29T14:30:30;97455.22;;;16.71;37.75
70434;BME280;57876;47.792;12.960;2023-01-29T14:32:57;97442.66;;;16.70;37.98
70434;BME280;57876;47.792;12.960;2023-01-29T14:35:34;97430.56;;;16.62;37.95
70434;BME280;57876;47.792;12.960;2023-01-29T14:38:04;97440.06;;;16.65;38.19
70434;BME280;57876;47.792;12.960;2023-01-29T14:57:34;97430.63;;;16.71;37.79
70434;BME280;57876;47.792;12.960;2023-01-29T15:00:06;97442.53;;;16.75;37.98
70434;BME280;57876;47.792;12.960;2023-01-29T15:02:53;97437.19;;;16.70;37.63
70434;BME280;57876;47.792;12.960;2023-01-29T15:05:35;97437.41;;;16.73;37.55
70434;BME280;57876;47.792;12.960;2023-01-29T15:10:45;97440.44;;;16.72;37.65
70434;BME280;57876;47.792;12.960;2023-01-29T15:13:31;97433.88;;;16.73;37.77
70434;BME280;57876;47.792;12.960;2023-01-29T15:16:13;97410.72;;;16.70;37.58
70434;BME280;57876;47.792;12.960;2023-01-29T15:18:41;97423.41;;;16.75;38.12
70434;BME280;57876;47.792;12.960;2023-01-29T15:21:11;97414.75;;;16.73;37.79
70434;BME280;57876;47.792;12.960;2023-01-29T15:27:34;97440.34;;;16.77;37.84
70434;BME280;57876;47.792;12.960;2023-01-29T15:34:19;97431.13;;;16.73;37.69
70434;BME280;57876;47.792;12.960;2023-01-29T15:36:50;97433.38;;;16.71;37.86
70434;BME280;57876;47.792;12.960;2023-01-29T15:39:16;97429.94;;;16.65;37.59
70434;BME280;57876;47.792;12.960;2023-01-29T15:41:43;97438.94;;;16.66;37.39